createdAt,value
2018-05-02T00:00:47.260Z,0.00
2018-05-02T00:01:47.270Z,0.00
2018-05-02T00:02:47.284Z,0.00
2018-05-02T00:03:47.297Z,0.00
2018-05-02T00:04:47.312Z,0.00
2018-05-02T00:05:47.336Z,0.00
2018-05-02T00:06:47.351Z,0.00
2018-05-02T00:07:47.365Z,0.00
2018-05-02T00:08:47.378Z,0.00
2018-05-02T00:09:47.390Z,0.00
2018-05-02T00:10:47.404Z,0.00
2018-05-02T00:11:47.431Z,0.00
2018-05-02T00:12:47.443Z,0.00
2018-05-02T00:13:47.459Z,0.00
2018-05-02T00:14:47.470Z,0.00
2018-05-02T00:15:47.486Z,0.00
2018-05-02T00:16:47.497Z,0.00
2018-05-02T00:17:47.523Z,0.00
2018-05-02T00:18:47.538Z,0.00
2018-05-02T00:19:47.552Z,0.00
2018-05-02T00:20:47.572Z,0.00
2018-05-02T00:21:47.577Z,0.00
2018-05-02T00:22:47.591Z,0.00
2018-05-02T00:23:47.605Z,0.00
2018-05-02T00:24:47.643Z,0.00
2018-05-02T00:25:47.652Z,0.00
2018-05-02T00:26:47.657Z,0.00
2018-05-02T00:27:47.671Z,0.00
2018-05-02T00:28:47.685Z,0.00
2018-05-02T00:29:47.698Z,0.00
2018-05-02T00:30:47.728Z,0.00
2018-05-02T00:31:47.738Z,0.00
2018-05-02T00:32:47.751Z,0.00
2018-05-02T00:33:47.764Z,0.00
2018-05-02T00:34:47.777Z,0.00
2018-05-02T00:35:47.791Z,0.00
2018-05-02T00:36:47.805Z,0.00
2018-05-02T00:37:47.831Z,0.00
2018-05-02T00:38:47.843Z,0.00
2018-05-02T00:39:47.859Z,0.00
2018-05-02T00:40:47.875Z,0.00
2018-05-02T00:41:47.884Z,0.00
2018-05-02T00:42:47.897Z,0.00
2018-05-02T00:43:47.912Z,0.00
2018-05-02T00:44:47.943Z,0.00
2018-05-02T00:45:47.965Z,0.00
2018-05-02T00:46:47.965Z,0.00
2018-05-02T00:47:47.978Z,0.00
2018-05-02T00:48:47.991Z,0.00
2018-05-02T00:49:48.021Z,0.00
2018-05-02T00:50:48.019Z,0.00
2018-05-02T00:51:48.045Z,0.00
2018-05-02T00:52:48.058Z,0.00
2018-05-02T00:53:48.071Z,0.00
2018-05-02T00:54:48.086Z,0.00
2018-05-02T00:55:48.099Z,0.00
2018-05-02T00:56:48.110Z,0.00
2018-05-02T00:57:48.125Z,0.00
2018-05-02T00:58:48.155Z,0.00
2018-05-02T00:59:48.164Z,0.00
2018-05-02T01:00:48.178Z,0.00
2018-05-02T01:01:48.191Z,0.00
2018-05-02T01:02:48.205Z,0.00
2018-05-02T01:03:48.222Z,0.00
2018-05-02T01:04:48.232Z,0.00
2018-05-02T01:05:48.244Z,0.00
2018-05-02T01:06:48.270Z,0.00
2018-05-02T01:07:48.286Z,0.00
2018-05-02T01:08:48.297Z,0.00
2018-05-02T01:09:48.314Z,0.00
2018-05-02T01:10:48.332Z,0.00
2018-05-02T01:11:48.338Z,0.00
2018-05-02T01:12:48.352Z,0.00
2018-05-02T01:13:48.365Z,0.00
2018-05-02T01:14:48.392Z,0.00
2018-05-02T01:15:48.407Z,0.00
2018-05-02T01:16:48.418Z,0.00
2018-05-02T01:17:48.430Z,0.00
2018-05-02T01:18:48.445Z,0.00
2018-05-02T01:19:48.457Z,0.00
2018-05-02T01:20:48.473Z,0.00
2018-05-02T01:21:48.498Z,0.00
2018-05-02T01:22:48.516Z,0.00
2018-05-02T01:23:48.527Z,0.00
2018-05-02T01:24:48.539Z,0.00
2018-05-02T01:25:48.552Z,0.00
2018-05-02T01:26:48.564Z,0.00
2018-05-02T01:27:48.579Z,0.00
2018-05-02T01:28:48.595Z,0.00
2018-05-02T01:29:48.607Z,0.00
2018-05-02T01:30:48.619Z,0.00
2018-05-02T01:31:48.647Z,0.00
2018-05-02T01:32:48.658Z,0.00
2018-05-02T01:33:48.685Z,0.00
2018-05-02T01:34:48.686Z,0.00
2018-05-02T01:35:48.699Z,0.00
2018-05-02T01:36:48.713Z,0.00
2018-05-02T01:37:48.728Z,0.00
2018-05-02T01:38:48.744Z,0.00
2018-05-02T01:39:48.754Z,0.00
2018-05-02T01:40:48.778Z,0.00
2018-05-02T01:41:48.796Z,0.00
2018-05-02T01:42:48.819Z,0.00
2018-05-02T01:43:48.820Z,0.00
2018-05-02T01:44:48.834Z,0.00
2018-05-02T01:45:48.846Z,0.00
2018-05-02T01:46:48.859Z,0.00
2018-05-02T01:47:48.874Z,0.00
2018-05-02T01:48:48.888Z,0.00
2018-05-02T01:49:48.912Z,0.00
2018-05-02T01:50:48.927Z,0.00
2018-05-02T01:51:48.939Z,0.00
2018-05-02T01:52:48.954Z,0.00
2018-05-02T01:53:48.967Z,0.00
2018-05-02T01:54:48.981Z,0.00
2018-05-02T01:55:49.006Z,0.00
2018-05-02T01:56:49.008Z,0.00
2018-05-02T01:57:49.021Z,0.00
2018-05-02T01:58:49.034Z,0.00
2018-05-02T01:59:49.063Z,0.00
2018-05-02T02:00:49.073Z,0.00
2018-05-02T02:01:49.088Z,0.00
2018-05-02T02:02:49.102Z,0.00
2018-05-02T02:03:49.115Z,0.00
2018-05-02T02:04:49.129Z,0.00
2018-05-02T02:05:49.145Z,0.00
2018-05-02T02:06:49.155Z,0.00
2018-05-02T02:07:49.168Z,0.00
2018-05-02T02:08:49.182Z,0.00
2018-05-02T02:09:49.197Z,0.00
2018-05-02T02:10:49.221Z,0.00
2018-05-02T02:11:49.234Z,0.00
2018-05-02T02:12:49.248Z,0.00
2018-05-02T02:13:49.262Z,0.00
2018-05-02T02:14:49.276Z,0.00
2018-05-02T02:15:49.288Z,0.00
2018-05-02T02:16:49.303Z,0.00
2018-05-02T02:17:49.315Z,0.00
2018-05-02T02:18:49.330Z,0.00
2018-05-02T02:19:49.355Z,0.00
2018-05-02T02:20:49.358Z,0.00
2018-05-02T02:21:49.369Z,0.00
2018-05-02T02:22:49.395Z,0.00
2018-05-02T02:23:49.412Z,0.00
2018-05-02T02:24:49.422Z,0.00
2018-05-02T02:25:49.435Z,0.00
2018-05-02T02:26:49.449Z,0.00
2018-05-02T02:27:49.463Z,0.00
2018-05-02T02:28:49.479Z,0.00
2018-05-02T02:29:49.490Z,0.00
2018-05-02T02:30:49.504Z,0.00
2018-05-02T02:31:49.518Z,0.00
2018-05-02T02:32:49.543Z,0.00
2018-05-02T02:33:49.544Z,0.00
2018-05-02T02:34:49.557Z,0.00
2018-05-02T02:35:49.583Z,0.00
2018-05-02T02:36:49.598Z,0.00
2018-05-02T02:37:49.611Z,0.00
2018-05-02T02:38:49.627Z,0.00
2018-05-02T02:39:49.637Z,0.00
2018-05-02T02:40:49.651Z,0.00
2018-05-02T02:41:49.664Z,0.00
2018-05-02T02:42:49.678Z,0.00
2018-05-02T02:43:49.695Z,0.00
2018-05-02T02:44:49.706Z,0.00
2018-05-02T02:45:49.731Z,0.00
2018-05-02T02:46:49.732Z,0.00
2018-05-02T02:47:49.746Z,0.00
2018-05-02T02:48:49.771Z,0.00
2018-05-02T02:49:49.785Z,0.00
2018-05-02T02:50:49.797Z,0.00
2018-05-02T02:51:49.812Z,0.00
2018-05-02T02:52:49.824Z,0.00
2018-05-02T02:53:49.838Z,0.00
2018-05-02T02:54:49.853Z,0.00
2018-05-02T02:55:49.866Z,0.00
2018-05-02T02:56:49.878Z,0.00
2018-05-02T02:57:49.896Z,0.00
2018-05-02T02:58:49.923Z,0.00
2018-05-02T02:59:49.918Z,0.00
2018-05-02T03:00:49.933Z,0.00
2018-05-02T03:01:49.948Z,0.00
2018-05-02T03:02:49.973Z,0.00
2018-05-02T03:03:49.986Z,0.00
2018-05-02T03:04:50.001Z,0.00
2018-05-02T03:05:50.013Z,0.00
2018-05-02T03:06:50.026Z,0.00
2018-05-02T03:07:50.041Z,0.00
2018-05-02T03:08:50.053Z,0.00
2018-05-02T03:09:50.066Z,0.00
2018-05-02T03:10:50.079Z,0.00
2018-05-02T03:11:50.094Z,0.00
2018-05-02T03:12:50.107Z,0.00
2018-05-02T03:13:50.120Z,0.00
2018-05-02T03:14:50.133Z,0.00
2018-05-02T03:15:50.148Z,0.00
2018-05-02T03:16:50.173Z,0.00
2018-05-02T03:17:50.188Z,0.00
2018-05-02T03:18:50.199Z,0.00
2018-05-02T03:19:50.213Z,0.00
2018-05-02T03:20:50.239Z,0.00
2018-05-02T03:21:50.241Z,0.00
2018-05-02T03:22:50.253Z,0.00
2018-05-02T03:23:50.268Z,0.00
2018-05-02T03:24:50.281Z,5.63
2018-05-02T03:25:50.294Z,5.63
2018-05-02T03:26:50.308Z,5.63
2018-05-02T03:27:50.324Z,5.63
2018-05-02T03:28:50.334Z,5.63
2018-05-02T03:29:50.348Z,5.63
2018-05-02T03:30:50.377Z,5.63
2018-05-02T03:31:50.387Z,5.63
2018-05-02T03:32:50.404Z,11.25
2018-05-02T03:33:50.427Z,11.25
2018-05-02T03:34:50.427Z,11.25
2018-05-02T03:35:50.440Z,11.25
2018-05-02T03:36:50.457Z,11.25
2018-05-02T03:37:50.469Z,16.88
2018-05-02T03:38:50.483Z,16.88
2018-05-02T03:39:50.494Z,16.88
2018-05-02T03:40:50.512Z,16.88
2018-05-02T03:41:50.521Z,16.88
2018-05-02T03:42:50.536Z,22.50
2018-05-02T03:43:50.550Z,22.50
2018-05-02T03:44:50.576Z,22.50
2018-05-02T03:45:50.589Z,28.13
2018-05-02T03:46:50.608Z,28.13
2018-05-02T03:47:50.622Z,28.13
2018-05-02T03:48:50.636Z,33.75
2018-05-02T03:49:50.649Z,33.75
2018-05-02T03:50:50.663Z,39.38
2018-05-02T03:51:50.692Z,39.38
2018-05-02T03:52:50.702Z,45.00
2018-05-02T03:53:50.721Z,45.00
2018-05-02T03:54:50.732Z,45.00
2018-05-02T03:55:50.743Z,50.63
2018-05-02T03:56:50.756Z,50.63
2018-05-02T03:57:50.770Z,56.25
2018-05-02T03:58:50.795Z,56.25
2018-05-02T03:59:50.809Z,61.88
2018-05-02T04:00:50.822Z,67.50
2018-05-02T04:01:50.837Z,67.50
2018-05-02T04:02:50.849Z,73.13
2018-05-02T04:03:50.861Z,73.13
2018-05-02T04:04:50.877Z,78.75
2018-05-02T04:05:50.890Z,78.75
2018-05-02T04:06:50.903Z,84.38
2018-05-02T04:07:50.917Z,84.38
2018-05-02T04:08:50.931Z,84.38
2018-05-02T04:09:50.945Z,84.38
2018-05-02T04:10:50.958Z,90.00
2018-05-02T04:11:50.984Z,90.00
2018-05-02T04:12:50.996Z,90.00
2018-05-02T04:13:51.015Z,90.00
2018-05-02T04:14:51.027Z,95.63
2018-05-02T04:15:51.037Z,95.63
2018-05-02T04:16:51.051Z,101.25
2018-05-02T04:17:51.065Z,101.25
2018-05-02T04:18:51.081Z,106.88
2018-05-02T04:19:51.092Z,106.88
2018-05-02T04:20:51.104Z,112.50
2018-05-02T04:21:51.119Z,112.50
2018-05-02T04:22:51.133Z,118.13
2018-05-02T04:23:51.158Z,123.75
2018-05-02T04:24:51.170Z,129.38
2018-05-02T04:25:51.185Z,129.38
2018-05-02T04:26:51.197Z,135.00
2018-05-02T04:27:51.213Z,135.00
2018-05-02T04:28:51.224Z,135.00
2018-05-02T04:29:51.238Z,135.00
2018-05-02T04:30:51.264Z,129.38
2018-05-02T04:31:51.278Z,129.38
2018-05-02T04:32:51.294Z,129.38
2018-05-02T04:33:51.309Z,129.38
2018-05-02T04:34:51.321Z,129.38
2018-05-02T04:35:51.333Z,129.38
2018-05-02T04:36:51.365Z,129.38
2018-05-02T04:37:51.358Z,129.38
2018-05-02T04:38:51.372Z,129.38
2018-05-02T04:39:51.398Z,135.00
2018-05-02T04:40:51.415Z,135.00
2018-05-02T04:41:51.425Z,135.00
2018-05-02T04:42:51.438Z,129.38
2018-05-02T04:43:51.446Z,129.38
2018-05-02T04:44:51.460Z,129.38
2018-05-02T04:45:51.473Z,129.38
2018-05-02T04:46:51.487Z,129.38
2018-05-02T04:47:51.512Z,129.38
2018-05-02T04:48:51.524Z,129.38
2018-05-02T04:49:51.545Z,135.00
2018-05-02T04:50:51.552Z,135.00
2018-05-02T04:51:51.569Z,135.00
2018-05-02T04:52:51.580Z,140.63
2018-05-02T04:53:51.592Z,146.25
2018-05-02T04:54:51.608Z,151.88
2018-05-02T04:55:51.635Z,151.88
2018-05-02T04:56:51.645Z,163.13
2018-05-02T04:57:51.665Z,168.75
2018-05-02T04:58:51.673Z,191.25
2018-05-02T04:59:51.687Z,208.13
2018-05-02T05:00:51.700Z,230.63
2018-05-02T05:01:51.714Z,241.88
2018-05-02T05:02:51.740Z,247.50
2018-05-02T05:03:51.739Z,247.50
2018-05-02T05:04:51.752Z,253.13
2018-05-02T05:05:51.766Z,247.50
2018-05-02T05:06:51.781Z,247.50
2018-05-02T05:07:51.793Z,247.50
2018-05-02T05:08:51.819Z,241.88
2018-05-02T05:09:51.832Z,241.88
2018-05-02T05:10:51.846Z,241.88
2018-05-02T05:11:51.860Z,241.88
2018-05-02T05:12:51.877Z,241.88
2018-05-02T05:13:51.888Z,241.88
2018-05-02T05:14:51.913Z,241.88
2018-05-02T05:15:51.926Z,241.88
2018-05-02T05:16:51.940Z,241.88
2018-05-02T05:17:51.952Z,247.50
2018-05-02T05:18:51.966Z,264.38
2018-05-02T05:19:52.006Z,281.25
2018-05-02T05:20:52.007Z,292.50
2018-05-02T05:21:52.018Z,309.38
2018-05-02T05:22:52.035Z,303.75
2018-05-02T05:23:52.061Z,298.13
2018-05-02T05:24:52.072Z,303.75
2018-05-02T05:25:52.085Z,309.38
2018-05-02T05:26:52.099Z,315.00
2018-05-02T05:27:52.113Z,326.25
2018-05-02T05:28:52.138Z,337.50
2018-05-02T05:29:52.152Z,348.75
2018-05-02T05:30:52.166Z,376.88
2018-05-02T05:31:52.179Z,410.63
2018-05-02T05:32:52.205Z,444.38
2018-05-02T05:33:52.224Z,478.13
2018-05-02T05:34:52.232Z,500.63
2018-05-02T05:35:52.258Z,517.50
2018-05-02T05:36:52.274Z,523.13
2018-05-02T05:37:52.285Z,523.13
2018-05-02T05:38:52.299Z,528.75
2018-05-02T05:39:52.325Z,528.75
2018-05-02T05:40:52.338Z,523.13
2018-05-02T05:41:52.352Z,523.13
2018-05-02T05:42:52.377Z,517.50
2018-05-02T05:43:52.390Z,511.88
2018-05-02T05:44:52.405Z,511.88
2018-05-02T05:45:52.431Z,523.13
2018-05-02T05:46:52.443Z,517.50
2018-05-02T05:47:52.470Z,517.50
2018-05-02T05:48:52.484Z,523.13
2018-05-02T05:49:52.509Z,534.38
2018-05-02T05:50:52.523Z,540.00
2018-05-02T05:51:52.537Z,551.25
2018-05-02T05:52:52.550Z,562.50
2018-05-02T05:53:52.578Z,573.75
2018-05-02T05:54:52.589Z,573.75
2018-05-02T05:55:52.616Z,585.00
2018-05-02T05:56:52.628Z,596.25
2018-05-02T05:57:52.655Z,596.25
2018-05-02T05:58:52.669Z,613.13
2018-05-02T05:59:52.684Z,613.13
2018-05-02T06:00:52.766Z,624.38
2018-05-02T06:01:52.721Z,635.63
2018-05-02T06:02:52.748Z,641.25
2018-05-02T06:03:52.762Z,646.88
2018-05-02T06:04:52.786Z,652.50
2018-05-02T06:05:52.801Z,652.50
2018-05-02T06:06:52.923Z,669.38
2018-05-02T06:07:52.842Z,669.38
2018-05-02T06:08:52.866Z,680.63
2018-05-02T06:09:52.881Z,697.50
2018-05-02T06:10:52.905Z,697.50
2018-05-02T06:11:52.919Z,714.38
2018-05-02T06:12:52.944Z,708.75
2018-05-02T06:13:52.971Z,725.63
2018-05-02T06:14:52.989Z,770.63
2018-05-02T06:15:53.011Z,810.00
2018-05-02T06:16:53.024Z,776.25
2018-05-02T06:17:53.050Z,939.38
2018-05-02T06:18:53.148Z,798.75
2018-05-02T06:19:53.089Z,832.50
2018-05-02T06:20:53.115Z,838.13
2018-05-02T06:21:53.128Z,888.75
2018-05-02T06:22:53.154Z,995.63
2018-05-02T06:23:53.169Z,916.88
2018-05-02T06:24:53.195Z,1608.75
2018-05-02T06:25:53.208Z,866.25
2018-05-02T06:26:53.233Z,1327.50
2018-05-02T06:27:53.260Z,1203.75
2018-05-02T06:28:53.279Z,961.88
2018-05-02T06:29:53.299Z,950.63
2018-05-02T06:30:53.326Z,1164.38
2018-05-02T06:31:53.422Z,1051.88
2018-05-02T06:32:53.363Z,961.88
2018-05-02T06:33:53.391Z,1164.38
2018-05-02T06:34:53.404Z,1310.63
2018-05-02T06:35:53.432Z,1012.50
2018-05-02T06:36:53.456Z,984.38
2018-05-02T06:37:53.535Z,1507.50
2018-05-02T06:38:53.496Z,1175.63
2018-05-02T06:39:53.524Z,984.38
2018-05-02T06:40:53.546Z,978.75
2018-05-02T06:41:53.560Z,1175.63
2018-05-02T06:42:53.587Z,1012.50
2018-05-02T06:43:53.614Z,1018.13
2018-05-02T06:44:53.627Z,1068.75
2018-05-02T06:45:53.653Z,978.75
2018-05-02T06:46:53.681Z,1215.00
2018-05-02T06:47:53.704Z,1305.00
2018-05-02T06:48:53.718Z,1080.00
2018-05-02T06:49:53.744Z,1091.25
2018-05-02T06:50:53.843Z,1209.38
2018-05-02T06:51:53.796Z,1074.38
2018-05-02T06:52:53.810Z,1068.75
2018-05-02T06:53:53.834Z,1068.75
2018-05-02T06:54:53.865Z,1271.25
2018-05-02T06:55:53.886Z,1141.88
2018-05-02T06:56:53.926Z,1175.63
2018-05-02T06:57:53.927Z,1136.25
2018-05-02T06:58:53.954Z,1141.88
2018-05-02T06:59:53.978Z,1209.38
2018-05-02T07:00:54.019Z,1153.13
2018-05-02T07:01:54.019Z,1091.25
2018-05-02T07:02:54.043Z,1130.63
2018-05-02T07:03:54.069Z,1175.63
2018-05-02T07:04:54.099Z,1113.75
2018-05-02T07:05:54.122Z,1203.75
2018-05-02T07:06:54.137Z,1383.75
2018-05-02T07:07:54.369Z,1355.63
2018-05-02T07:08:54.191Z,1170.00
2018-05-02T07:09:54.214Z,1141.88
2018-05-02T07:10:54.244Z,1254.38
2018-05-02T07:11:54.268Z,1153.13
2018-05-02T07:12:54.278Z,1136.25
2018-05-02T07:13:54.305Z,1220.63
2018-05-02T07:14:54.337Z,1153.13
2018-05-02T07:15:54.707Z,1164.38
2018-05-02T07:16:54.382Z,1192.50
2018-05-02T07:17:54.411Z,1597.50
2018-05-02T07:18:54.423Z,1378.13
2018-05-02T07:19:54.448Z,1496.25
2018-05-02T07:20:54.475Z,1501.88
2018-05-02T07:21:54.501Z,1361.25
2018-05-02T07:22:54.526Z,1271.25
2018-05-02T07:23:54.553Z,1411.88
2018-05-02T07:24:54.578Z,1355.63
2018-05-02T07:25:54.603Z,1569.38
2018-05-02T07:26:54.616Z,1659.38
2018-05-02T07:27:54.642Z,1586.25
2018-05-02T07:28:54.670Z,1395.00
2018-05-02T07:29:54.695Z,2289.38
2018-05-02T07:30:54.721Z,1327.50
2018-05-02T07:31:54.747Z,1400.63
2018-05-02T07:32:54.828Z,1310.63
2018-05-02T07:33:54.799Z,1417.50
2018-05-02T07:34:54.830Z,1406.25
2018-05-02T07:35:54.850Z,1445.63
2018-05-02T07:36:54.866Z,1383.75
2018-05-02T07:37:54.891Z,1501.88
2018-05-02T07:38:54.916Z,1558.13
2018-05-02T07:39:54.943Z,1597.50
2018-05-02T07:40:54.970Z,1614.38
2018-05-02T07:41:54.994Z,1338.75
2018-05-02T07:42:55.021Z,1389.38
2018-05-02T07:43:55.058Z,1473.75
2018-05-02T07:44:55.074Z,1507.50
2018-05-02T07:45:55.100Z,1518.75
2018-05-02T07:46:55.125Z,1800.00
2018-05-02T07:47:55.150Z,1861.88
2018-05-02T07:48:55.176Z,1777.50
2018-05-02T07:49:55.203Z,1698.75
2018-05-02T07:50:55.228Z,2171.25
2018-05-02T07:51:55.302Z,1856.25
2018-05-02T07:52:55.284Z,1636.88
2018-05-02T07:53:55.311Z,1980.00
2018-05-02T07:54:55.332Z,1946.25
2018-05-02T07:55:55.359Z,1951.88
2018-05-02T07:56:55.385Z,1777.50
2018-05-02T07:57:55.411Z,1833.75
2018-05-02T07:58:55.436Z,1698.75
2018-05-02T07:59:55.462Z,1665.00
2018-05-02T08:00:55.489Z,1980.00
2018-05-02T08:01:55.515Z,1715.63
2018-05-02T08:02:55.541Z,1687.50
2018-05-02T08:03:55.566Z,1614.38
2018-05-02T08:04:55.592Z,1693.13
2018-05-02T08:05:55.618Z,1530.00
2018-05-02T08:06:55.655Z,1603.13
2018-05-02T08:07:55.682Z,1496.25
2018-05-02T08:08:55.709Z,1546.88
2018-05-02T08:09:55.736Z,1462.50
2018-05-02T08:10:55.762Z,1440.00
2018-05-02T08:11:55.785Z,1473.75
2018-05-02T08:12:55.814Z,1468.13
2018-05-02T08:13:55.837Z,1485.00
2018-05-02T08:14:55.864Z,1558.13
2018-05-02T08:15:55.903Z,1642.50
2018-05-02T08:16:55.916Z,1653.75
2018-05-02T08:17:55.942Z,1653.75
2018-05-02T08:18:55.983Z,1659.38
2018-05-02T08:19:56.014Z,1670.63
2018-05-02T08:20:56.033Z,1591.88
2018-05-02T08:21:56.060Z,1546.88
2018-05-02T08:22:56.090Z,1423.13
2018-05-02T08:23:56.113Z,1456.88
2018-05-02T08:24:56.140Z,1451.25
2018-05-02T08:25:56.163Z,1445.63
2018-05-02T08:26:56.189Z,1428.75
2018-05-02T08:27:56.225Z,1423.13
2018-05-02T08:28:56.252Z,1400.63
2018-05-02T08:29:56.290Z,1366.88
2018-05-02T08:30:56.305Z,1333.13
2018-05-02T08:31:56.331Z,1310.63
2018-05-02T08:32:56.379Z,1254.38
2018-05-02T08:33:56.383Z,1265.63
2018-05-02T08:34:56.409Z,1288.13
2018-05-02T08:35:56.435Z,1350.00
2018-05-02T08:36:56.459Z,1321.88
2018-05-02T08:37:56.486Z,1321.88
2018-05-02T08:38:56.560Z,1333.13
2018-05-02T08:39:56.551Z,1327.50
2018-05-02T08:40:56.577Z,1344.38
2018-05-02T08:41:56.603Z,1333.13
2018-05-02T08:42:56.628Z,1327.50
2018-05-02T08:43:56.654Z,1355.63
2018-05-02T08:44:56.681Z,1411.88
2018-05-02T08:45:56.706Z,1400.63
2018-05-02T08:46:56.733Z,1327.50
2018-05-02T08:47:56.961Z,1276.88
2018-05-02T08:48:56.785Z,1327.50
2018-05-02T08:49:56.832Z,1428.75
2018-05-02T08:50:56.836Z,1473.75
2018-05-02T08:51:56.865Z,1468.13
2018-05-02T08:52:56.888Z,1434.38
2018-05-02T08:53:57.117Z,1411.88
2018-05-02T08:54:56.942Z,1361.25
2018-05-02T08:55:56.979Z,1276.88
2018-05-02T08:56:57.004Z,1237.50
2018-05-02T08:57:57.030Z,1220.63
2018-05-02T08:58:57.070Z,1181.25
2018-05-02T08:59:57.082Z,1147.50
2018-05-02T09:00:57.109Z,1085.63
2018-05-02T09:01:57.135Z,1023.75
2018-05-02T09:02:57.162Z,984.38
2018-05-02T09:03:57.187Z,939.38
2018-05-02T09:04:57.213Z,911.25
2018-05-02T09:05:57.237Z,883.13
2018-05-02T09:06:57.269Z,849.38
2018-05-02T09:07:57.290Z,815.63
2018-05-02T09:08:57.323Z,793.13
2018-05-02T09:09:57.343Z,765.00
2018-05-02T09:10:57.381Z,725.63
2018-05-02T09:11:57.757Z,691.88
2018-05-02T09:12:57.433Z,658.13
2018-05-02T09:13:57.459Z,618.75
2018-05-02T09:14:57.503Z,596.25
2018-05-02T09:15:57.511Z,579.38
2018-05-02T09:16:57.536Z,573.75
2018-05-02T09:17:57.564Z,568.13
2018-05-02T09:18:57.589Z,540.00
2018-05-02T09:19:57.617Z,517.50
2018-05-02T09:20:57.643Z,511.88
2018-05-02T09:21:57.654Z,528.75
2018-05-02T09:22:57.680Z,517.50
2018-05-02T09:23:57.706Z,506.25
2018-05-02T09:24:57.732Z,511.88
2018-05-02T09:25:57.758Z,528.75
2018-05-02T09:26:57.784Z,556.88
2018-05-02T09:27:57.814Z,556.88
2018-05-02T09:28:57.836Z,528.75
2018-05-02T09:29:57.862Z,506.25
2018-05-02T09:30:57.888Z,495.00
2018-05-02T09:31:57.915Z,478.13
2018-05-02T09:32:57.940Z,472.50
2018-05-02T09:33:57.953Z,500.63
2018-05-02T09:34:57.980Z,534.38
2018-05-02T09:35:58.006Z,551.25
2018-05-02T09:36:58.031Z,545.63
2018-05-02T09:37:58.057Z,540.00
2018-05-02T09:38:58.084Z,545.63
2018-05-02T09:39:58.107Z,523.13
2018-05-02T09:40:58.122Z,511.88
2018-05-02T09:41:58.148Z,500.63
2018-05-02T09:42:58.176Z,500.63
2018-05-02T09:43:58.199Z,500.63
2018-05-02T09:44:58.237Z,495.00
2018-05-02T09:45:58.239Z,500.63
2018-05-02T09:46:58.265Z,517.50
2018-05-02T09:47:58.291Z,540.00
2018-05-02T09:48:58.325Z,573.75
2018-05-02T09:49:58.343Z,590.63
2018-05-02T09:50:58.369Z,618.75
2018-05-02T09:51:58.429Z,652.50
2018-05-02T09:52:58.407Z,686.25
2018-05-02T09:53:58.434Z,714.38
2018-05-02T09:54:58.460Z,691.88
2018-05-02T09:55:58.486Z,691.88
2018-05-02T09:56:58.500Z,725.63
2018-05-02T09:57:58.526Z,804.38
2018-05-02T09:58:58.552Z,849.38
2018-05-02T09:59:58.579Z,810.00
2018-05-02T10:00:58.604Z,770.63
2018-05-02T10:01:58.617Z,720.00
2018-05-02T10:02:58.647Z,658.13
2018-05-02T10:04:58.694Z,590.63
2018-05-02T10:05:58.721Z,596.25
2018-05-02T10:06:58.735Z,641.25
2018-05-02T10:07:58.771Z,708.75
2018-05-02T10:08:58.791Z,753.75
2018-05-02T10:09:59.015Z,787.50
2018-05-02T10:10:58.839Z,798.75
2018-05-02T10:11:58.865Z,793.13
2018-05-02T10:12:58.877Z,776.25
2018-05-02T10:13:58.904Z,781.88
2018-05-02T10:14:58.932Z,810.00
2018-05-02T10:15:58.956Z,826.88
2018-05-02T10:16:58.983Z,810.00
2018-05-02T10:17:59.002Z,787.50
2018-05-02T10:18:59.023Z,793.13
2018-05-02T10:19:59.047Z,838.13
2018-05-02T10:20:59.073Z,860.63
2018-05-02T10:21:59.099Z,860.63
2018-05-02T10:22:59.126Z,843.75
2018-05-02T10:23:59.142Z,843.75
2018-05-02T10:24:59.167Z,860.63
2018-05-02T10:25:59.193Z,916.88
2018-05-02T10:26:59.216Z,961.88
2018-05-02T10:27:59.241Z,973.13
2018-05-02T10:28:59.267Z,950.63
2018-05-02T10:29:59.286Z,928.13
2018-05-02T10:30:59.307Z,922.50
2018-05-02T10:31:59.335Z,922.50
2018-05-02T10:32:59.360Z,894.38
2018-05-02T10:33:59.386Z,855.00
2018-05-02T10:34:59.399Z,855.00
2018-05-02T10:35:59.424Z,911.25
2018-05-02T10:36:59.560Z,1001.25
2018-05-02T10:37:59.500Z,1074.38
2018-05-02T10:38:59.504Z,1113.75
2018-05-02T10:39:59.528Z,1141.88
2018-05-02T10:40:59.555Z,1119.38
2018-05-02T10:41:59.573Z,1068.75
2018-05-02T10:42:59.595Z,1046.25
2018-05-02T10:43:59.621Z,1068.75
2018-05-02T10:44:59.648Z,1108.13
2018-05-02T10:45:59.673Z,1141.88
2018-05-02T10:46:59.902Z,1158.75
2018-05-02T10:47:59.728Z,1164.38
2018-05-02T10:48:59.751Z,1158.75
2018-05-02T10:49:59.764Z,1147.50
2018-05-02T10:50:59.789Z,1130.63
2018-05-02T10:51:59.817Z,1113.75
2018-05-02T10:52:59.841Z,1068.75
2018-05-02T10:53:59.867Z,1046.25
2018-05-02T10:54:59.894Z,1063.13
2018-05-02T10:55:59.997Z,1040.63
2018-05-02T10:56:59.944Z,961.88
2018-05-02T10:59:00.000Z,787.50
2018-05-02T11:00:00.054Z,821.25
2018-05-02T11:01:00.038Z,1001.25
2018-05-02T11:02:00.064Z,1231.88
2018-05-02T11:03:00.090Z,1175.63
2018-05-02T11:04:00.116Z,1186.88
2018-05-02T11:05:00.142Z,1209.38
2018-05-02T11:06:00.167Z,1080.00
2018-05-02T11:07:00.197Z,984.38
2018-05-02T11:08:00.220Z,978.75
2018-05-02T11:09:00.245Z,1040.63
2018-05-02T11:10:00.271Z,1068.75
2018-05-02T11:11:00.297Z,1040.63
2018-05-02T11:12:00.324Z,1068.75
2018-05-02T11:13:00.342Z,1282.50
2018-05-02T11:14:00.362Z,1456.88
2018-05-02T11:15:00.388Z,1462.50
2018-05-02T11:16:00.415Z,1372.50
2018-05-02T11:17:00.441Z,1361.25
2018-05-02T11:18:00.467Z,1395.00
2018-05-02T11:19:00.493Z,1417.50
2018-05-02T11:20:00.518Z,1383.75
2018-05-02T11:21:00.545Z,1305.00
2018-05-02T11:22:00.643Z,1271.25
2018-05-02T11:23:00.596Z,1406.25
2018-05-02T11:24:00.624Z,1485.00
2018-05-02T11:25:00.648Z,1473.75
2018-05-02T11:26:00.673Z,1575.00
2018-05-02T11:27:00.915Z,1614.38
2018-05-02T11:28:00.725Z,1479.38
2018-05-02T11:29:00.751Z,1316.25
2018-05-02T11:30:00.777Z,1220.63
2018-05-02T11:32:00.829Z,1215.00
2018-05-02T11:33:00.855Z,1209.38
2018-05-02T11:34:00.881Z,1215.00
2018-05-02T11:35:00.908Z,1215.00
2018-05-02T11:36:00.935Z,1220.63
2018-05-02T11:37:00.959Z,1220.63
2018-05-02T11:38:00.985Z,1147.50
2018-05-02T11:39:01.011Z,973.13
2018-05-02T11:40:01.039Z,798.75
2018-05-02T11:41:01.064Z,714.38
2018-05-02T11:42:01.102Z,680.63
2018-05-02T11:43:01.115Z,646.88
2018-05-02T11:44:01.142Z,613.13
2018-05-02T11:45:01.167Z,585.00
2018-05-02T11:46:01.193Z,545.63
2018-05-02T11:47:01.223Z,534.38
2018-05-02T11:48:01.247Z,528.75
2018-05-02T11:49:01.275Z,528.75
2018-05-02T11:50:01.297Z,540.00
2018-05-02T11:51:01.324Z,540.00
2018-05-02T11:52:01.352Z,556.88
2018-05-02T11:53:01.374Z,573.75
2018-05-02T11:54:01.402Z,562.50
2018-05-02T11:55:01.427Z,540.00
2018-05-02T11:56:01.441Z,500.63
2018-05-02T11:57:01.471Z,461.25
2018-05-02T11:58:01.499Z,427.50
2018-05-02T11:59:01.518Z,410.63
2018-05-02T12:00:01.544Z,388.13
2018-05-02T12:01:01.571Z,382.50
2018-05-02T12:02:01.597Z,388.13
2018-05-02T12:03:01.623Z,399.38
2018-05-02T12:04:01.637Z,410.63
2018-05-02T12:05:01.661Z,421.88
2018-05-02T12:06:01.687Z,427.50
2018-05-02T12:07:01.713Z,433.13
2018-05-02T12:08:01.740Z,433.13
2018-05-02T12:09:01.778Z,438.75
2018-05-02T12:10:01.791Z,438.75
2018-05-02T12:11:01.805Z,444.38
2018-05-02T12:12:01.836Z,450.00
2018-05-02T12:13:01.857Z,455.63
2018-05-02T12:14:01.889Z,461.25
2018-05-02T12:15:01.909Z,466.88
2018-05-02T12:16:01.985Z,466.88
2018-05-02T12:17:01.962Z,461.25
2018-05-02T12:18:01.973Z,450.00
2018-05-02T12:19:02.004Z,450.00
2018-05-02T12:20:02.026Z,444.38
2018-05-02T12:21:02.040Z,444.38
2018-05-02T12:22:02.066Z,444.38
2018-05-02T12:23:02.097Z,433.13
2018-05-02T12:24:02.118Z,421.88
2018-05-02T12:25:02.147Z,405.00
2018-05-02T12:26:02.159Z,393.75
2018-05-02T12:27:02.186Z,382.50
2018-05-02T12:28:02.210Z,376.88
2018-05-02T12:29:02.234Z,382.50
2018-05-02T12:30:02.261Z,393.75
2018-05-02T12:31:02.275Z,405.00
2018-05-02T12:32:02.300Z,405.00
2018-05-02T12:33:02.326Z,399.38
2018-05-02T12:34:02.344Z,393.75
2018-05-02T12:35:02.365Z,393.75
2018-05-02T12:36:02.394Z,405.00
2018-05-02T12:37:02.418Z,410.63
2018-05-02T12:38:02.432Z,421.88
2018-05-02T12:39:02.459Z,427.50
2018-05-02T12:40:02.484Z,433.13